KUKT/UKT METAR and TAF weather

Enter ICAO airport designator
Station Type Date Time Source
KUKT METAR 2021/07/28 03:35 UTC NOAA

KUKT 280335Z AUTO 00000KT 10SM CLR 22/16 A2997 RMK A01


Station Type Date Time Source
KUKT Decoded METAR 2021/07/28 03:35 UTC NOAA

Quakertown, Quakertown Airport, PA, United States (KUKT) 40-26-06N 075-22-54W
Jul 27, 2021 - 11:35 PM EDT / 2021.07.28 0335 UTC
Wind: Calm:0
Visibility: 10 mile(s):0
Sky conditions: clear
Temperature: 71 F (22 C)
Dew Point: 60 F (16 C)
Relative Humidity: 68%
Pressure (altimeter): 29.97 in. Hg (1014 hPa)
ob: KUKT 280335Z AUTO 00000KT 10SM CLR 22/16 A2997 RMK A01
cycle: 3

Station Type Date Time Source
KUKT TAF UTC NOAA

Error!

Example: see airport list